Time;durP1;ratioP1;P1;durP2;ratioP2;P2;SDS_P1;SDS_P2;PMS_P1;PMS_P2;Temp;Humidity;BMP_temperature;BMP_pressure;BME280_temperature;BME280_humidity;BME280_pressure;Samples;Min_cycle;Max_cycle;Signal;HPM_P1;HPM_P2
2021/05/11 00:01:51;;;;;;;13.35;5.35;;;10.20;48.50;;;;;;5054895;28;20466;-86
2021/05/11 00:04:17;;;;;;;9.40;5.88;;;10.20;49.00;;;;;;5056163;28;20021;-85
2021/05/11 00:06:43;;;;;;;11.85;5.05;;;10.10;48.60;;;;;;5037227;28;20025;-85
2021/05/11 00:09:09;;;;;;;8.88;5.00;;;10.10;48.60;;;;;;5054615;28;20116;-85
2021/05/11 00:11:36;;;;;;;10.50;5.38;;;10.10;48.50;;;;;;5054079;28;20099;-85
2021/05/11 00:14:05;;;;;;;9.38;4.93;;;10.20;48.40;;;;;;5053891;28;20402;-85
2021/05/11 00:16:31;;;;;;;13.02;6.60;;;10.20;48.40;;;;;;5053683;28;20378;-85
2021/05/11 00:18:58;;;;;;;6.90;4.30;;;10.20;48.60;;;;;;5053877;28;20031;-86
2021/05/11 00:21:24;;;;;;;9.02;5.15;;;10.20;48.60;;;;;;5052819;28;20458;-86
2021/05/11 00:23:50;;;;;;;8.95;5.15;;;10.10;48.90;;;;;;5054916;28;20025;-86
2021/05/11 00:26:16;;;;;;;11.57;5.72;;;10.00;48.90;;;;;;5054620;28;20037;-84
2021/05/11 00:28:42;;;;;;;6.63;4.85;;;10.00;49.10;;;;;;5050672;28;20116;-83
2021/05/11 00:31:07;;;;;;;16.92;5.68;;;10.00;49.10;;;;;;5072775;28;20031;-84
2021/05/11 00:33:33;;;;;;;12.05;5.63;;;10.00;49.40;;;;;;5040583;28;20087;-82
2021/05/11 00:35:59;;;;;;;11.85;5.40;;;10.00;49.50;;;;;;5053225;28;20047;-83
2021/05/11 00:38:25;;;;;;;8.50;5.40;;;10.00;49.40;;;;;;5048330;28;20018;-83
2021/05/11 00:40:51;;;;;;;9.48;6.30;;;9.90;49.40;;;;;;5042687;28;20060;-83
2021/05/11 00:43:16;;;;;;;10.63;5.15;;;9.90;49.50;;;;;;5052374;28;20488;-82
2021/05/11 00:45:42;;;;;;;11.73;5.70;;;9.90;49.90;;;;;;5047114;28;20026;-83
2021/05/11 00:48:08;;;;;;;11.40;5.35;;;9.90;49.80;;;;;;5046875;28;20029;-82
2021/05/11 00:50:34;;;;;;;12.00;6.05;;;9.90;49.80;;;;;;5039538;28;20028;-82
2021/05/11 00:53:00;;;;;;;10.57;5.80;;;9.90;50.10;;;;;;5053018;28;20025;-83
2021/05/11 00:55:27;;;;;;;10.55;5.03;;;9.80;50.20;;;;;;5053792;28;20382;-82
2021/05/11 00:57:53;;;;;;;11.90;5.70;;;9.80;50.30;;;;;;5038385;28;20048;-85
2021/05/11 01:00:19;;;;;;;13.13;6.57;;;9.80;50.60;;;;;;5047220;28;20029;-83
2021/05/11 01:02:45;;;;;;;6.03;5.28;;;9.70;50.70;;;;;;5053149;28;20100;-84
2021/05/11 01:05:12;;;;;;;7.65;5.13;;;9.70;50.80;;;;;;5049447;28;20517;-85
2021/05/11 01:07:38;;;;;;;6.60;4.88;;;9.60;50.90;;;;;;5040568;28;20025;-83
2021/05/11 01:10:04;;;;;;;7.72;4.50;;;9.60;50.90;;;;;;5067493;28;20063;-82
2021/05/11 01:12:30;;;;;;;11.65;4.95;;;9.70;50.90;;;;;;5066073;28;20017;-82
2021/05/11 01:14:56;;;;;;;9.15;5.60;;;9.70;50.90;;;;;;5052605;28;20036;-82
2021/05/11 01:17:26;;;;;;;7.88;5.05;;;9.70;51.00;;;;;;5053047;28;20033;-84
2021/05/11 01:19:58;;;;;;;9.48;4.80;;;9.60;51.40;;;;;;5053830;28;20013;-84
2021/05/11 01:25:15;;;;;;;8.30;5.32;;;9.60;52.40;;;;;;5054568;28;20117;-86
2021/05/11 02:23:51;;;;;;;9.40;5.18;;;10.00;51.60;;;;;;5055575;28;20436;-82
2021/05/11 02:26:17;;;;;;;11.48;4.88;;;10.00;51.60;;;;;;5053752;28;20131;-83
2021/05/11 02:28:42;;;;;;;7.93;4.30;;;10.00;52.30;;;;;;5055673;28;20402;-86
2021/05/11 02:31:08;;;;;;;8.18;4.82;;;10.10;51.90;;;;;;5056034;28;20359;-84
2021/05/11 02:33:34;;;;;;;8.48;4.50;;;10.10;52.10;;;;;;5056344;28;20021;-85
2021/05/11 02:36:00;;;;;;;7.78;4.25;;;10.20;51.60;;;;;;5055737;28;20508;-85
2021/05/11 02:38:26;;;;;;;8.93;4.22;;;10.30;51.20;;;;;;5056417;28;20017;-85
2021/05/11 02:40:52;;;;;;;7.78;4.88;;;10.40;51.00;;;;;;5058136;28;20029;-85
2021/05/11 02:43:21;;;;;;;7.65;4.70;;;10.50;50.70;;;;;;5057057;28;20017;-85
2021/05/11 02:45:47;;;;;;;7.25;4.80;;;10.60;50.70;;;;;;5054969;28;20059;-85
2021/05/11 02:48:13;;;;;;;5.80;4.07;;;10.60;50.40;;;;;;5055920;28;20028;-85
2021/05/11 02:50:39;;;;;;;7.28;4.30;;;10.70;50.10;;;;;;5055040;28;20094;-85
2021/05/11 02:53:05;;;;;;;7.22;4.03;;;10.80;50.20;;;;;;5056027;28;20481;-85
2021/05/11 02:55:32;;;;;;;8.95;4.85;;;10.80;50.00;;;;;;5058302;28;20393;-85
2021/05/11 02:58:00;;;;;;;11.13;4.40;;;10.80;50.10;;;;;;5057765;28;20390;-85
2021/05/11 03:00:27;;;;;;;8.50;3.80;;;10.80;50.00;;;;;;5045932;28;20458;-85
2021/05/11 03:02:57;;;;;;;7.90;3.85;;;10.90;50.00;;;;;;5057456;28;20064;-85
2021/05/11 03:05:23;;;;;;;7.88;4.68;;;10.90;49.90;;;;;;5051626;28;20092;-84
2021/05/11 03:07:49;;;;;;;5.95;3.80;;;11.00;49.90;;;;;;5046294;28;20025;-80
2021/05/11 03:10:16;;;;;;;7.45;3.85;;;11.10;49.80;;;;;;5056905;28;20055;-81
2021/05/11 03:12:42;;;;;;;6.10;3.95;;;11.20;49.50;;;;;;5043975;28;20021;-83
2021/05/11 03:15:09;;;;;;;5.05;4.18;;;11.30;49.60;;;;;;5054371;28;20837;-83
2021/05/11 03:17:36;;;;;;;6.72;4.35;;;11.30;49.10;;;;;;5054188;28;20474;-84
2021/05/11 03:20:07;;;;;;;5.88;4.18;;;11.40;49.20;;;;;;5054810;28;20064;-82
2021/05/11 03:22:33;;;;;;;10.45;4.03;;;11.50;49.20;;;;;;5039958;28;20024;-83
2021/05/11 03:24:59;;;;;;;6.72;3.78;;;11.60;48.60;;;;;;5054004;28;20088;-83
2021/05/11 03:27:25;;;;;;;6.88;4.50;;;11.60;48.70;;;;;;5055900;28;20025;-82
2021/05/11 03:29:51;;;;;;;6.95;4.20;;;11.60;48.80;;;;;;5049640;28;20033;-81
2021/05/11 03:32:17;;;;;;;5.85;3.53;;;11.70;48.80;;;;;;5046167;28;20466;-81
2021/05/11 03:34:42;;;;;;;18.10;4.82;;;11.70;48.80;;;;;;5054309;28;20048;-82
2021/05/11 03:37:08;;;;;;;7.50;4.07;;;11.80;48.70;;;;;;5054417;28;20020;-84
2021/05/11 03:39:38;;;;;;;6.55;4.30;;;11.90;48.10;;;;;;5052871;28;20513;-82
2021/05/11 03:42:12;;;;;;;7.85;4.15;;;12.00;47.80;;;;;;5054112;28;20051;-82
2021/05/11 03:44:43;;;;;;;8.80;4.35;;;12.00;47.90;;;;;;5054690;28;20021;-84
2021/05/11 03:47:15;;;;;;;12.07;3.85;;;12.10;48.00;;;;;;5056481;28;20120;-82
2021/05/11 03:49:41;;;;;;;8.63;4.22;;;12.20;47.80;;;;;;5056339;28;20036;-81
2021/05/11 03:52:08;;;;;;;9.45;4.18;;;12.30;47.60;;;;;;5074841;28;20062;-86
2021/05/11 03:54:34;;;;;;;7.60;4.20;;;12.30;47.60;;;;;;5057097;28;20045;-85
2021/05/11 03:57:00;;;;;;;6.43;4.05;;;12.40;47.20;;;;;;5053582;28;20049;-85
2021/05/11 03:59:26;;;;;;;5.90;3.38;;;12.50;47.10;;;;;;5054997;28;20068;-86
2021/05/11 04:01:52;;;;;;;8.20;5.20;;;12.60;47.20;;;;;;5044080;28;20027;-83
2021/05/11 04:04:19;;;;;;;8.85;4.30;;;12.60;47.30;;;;;;5053418;28;20475;-84
2021/05/11 04:06:45;;;;;;;5.57;3.95;;;12.70;46.90;;;;;;5053059;28;20474;-83
2021/05/11 04:14:18;;;;;;;11.82;6.32;;;12.90;47.00;;;;;;5053081;28;20501;-84
2021/05/11 04:16:46;;;;;;;8.68;4.65;;;13.00;46.80;;;;;;5053369;28;20017;-83
2021/05/11 04:19:12;;;;;;;7.30;2.97;;;13.10;47.40;;;;;;5048153;28;20096;-83
2021/05/11 04:21:37;;;;;;;16.88;5.93;;;13.20;46.40;;;;;;5052670;28;20167;-83
2021/05/11 04:24:04;;;;;;;10.32;3.67;;;13.30;46.40;;;;;;5052857;28;20021;-83
2021/05/11 04:26:32;;;;;;;11.63;5.55;;;13.40;46.40;;;;;;5045968;28;20041;-84
2021/05/11 04:28:58;;;;;;;12.98;4.38;;;13.50;46.20;;;;;;5052736;28;20166;-83
2021/05/11 04:31:24;;;;;;;7.22;4.13;;;13.60;46.20;;;;;;5051842;28;20462;-83
2021/05/11 04:33:50;;;;;;;18.52;6.22;;;13.60;45.80;;;;;;5053109;28;20025;-82
2021/05/11 04:36:17;;;;;;;14.18;3.55;;;13.60;46.00;;;;;;5052289;28;20505;-82
2021/05/11 04:38:43;;;;;;;9.40;3.33;;;13.70;45.80;;;;;;5052365;28;20490;-83
2021/05/11 04:41:09;;;;;;;7.00;2.58;;;13.90;45.40;;;;;;5052153;28;20462;-82
2021/05/11 04:43:37;;;;;;;6.72;3.55;;;14.00;45.20;;;;;;5052582;28;20013;-85
2021/05/11 04:48:49;;;;;;;5.80;2.53;;;14.00;44.80;;;;;;5052450;28;20512;-84
2021/05/11 04:51:16;;;;;;;6.22;2.58;;;14.20;45.80;;;;;;5053524;28;20025;-85
2021/05/11 04:53:43;;;;;;;;;;;14.60;44.40;;;;;;5044577;28;20017;-84
2021/05/11 04:56:08;;;;;;;6.13;2.92;;;15.30;44.10;;;;;;5053063;28;20362;-85
2021/05/11 04:58:34;;;;;;;5.50;3.10;;;15.90;42.70;;;;;;5052802;28;20035;-84
2021/05/11 05:01:04;;;;;;;5.22;2.45;;;16.50;41.10;;;;;;5052899;28;20021;-83
2021/05/11 05:03:38;;;;;;;4.45;2.20;;;17.20;40.20;;;;;;5052663;28;20021;-84
2021/05/11 05:06:05;;;;;;;7.18;3.38;;;17.80;39.60;;;;;;5043339;28;20045;-83
2021/05/11 05:08:30;;;;;;;4.75;2.10;;;18.10;37.40;;;;;;5060648;28;20052;-84
2021/05/11 05:10:56;;;;;;;2.35;2.08;;;18.20;37.70;;;;;;5064223;28;20024;-83
2021/05/11 05:13:24;;;;;;;7.18;3.00;;;18.70;37.40;;;;;;5053409;28;20060;-84
2021/05/11 05:15:55;;;;;;;8.27;3.65;;;19.20;36.30;;;;;;5053067;28;20036;-85
2021/05/11 05:18:21;;;;;;;20.52;2.85;;;19.80;35.80;;;;;;5053900;28;20398;-87
2021/05/11 05:20:50;;;;;;;7.18;4.60;;;20.50;34.40;;;;;;5044582;28;20021;-85
2021/05/11 05:23:16;;;;;;;4.22;2.25;;;20.30;34.40;;;;;;5048973;28;20483;-87
2021/05/11 05:26:10;;;;;;;8.18;5.10;;;20.00;33.90;;;;;;5035472;28;20080;-87
2021/05/11 05:28:39;;;;;;;5.25;2.53;;;20.30;34.20;;;;;;5060240;28;20045;-81
2021/05/11 05:31:06;;;;;;;8.55;2.22;;;20.60;33.30;;;;;;5035171;28;20044;-87
2021/05/11 05:33:34;;;;;;;4.88;2.40;;;21.20;32.70;;;;;;5032215;28;20029;-90
2021/05/11 05:36:17;;;;;;;8.63;2.70;;;21.00;32.00;;;;;;5043098;28;20312;-85
2021/05/11 05:38:42;;;;;;;5.15;2.80;;;21.10;32.60;;;;;;5056416;28;20514;-88
2021/05/11 05:41:11;;;;;;;5.47;2.05;;;21.90;31.70;;;;;;5056676;28;20106;-88
2021/05/11 05:44:14;;;;;;;4.72;2.15;;;22.00;31.30;;;;;;5068941;28;20021;-90
2021/05/11 05:46:40;;;;;;;3.67;1.92;;;22.40;31.60;;;;;;5036640;28;20030;-89
2021/05/11 05:49:43;;;;;;;3.97;2.55;;;22.60;30.30;;;;;;5050446;28;20037;-92
2021/05/11 05:52:15;;;;;;;7.35;2.13;;;22.70;30.90;;;;;;5049554;28;20036;-90
2021/05/11 05:54:41;;;;;;;5.50;2.35;;;23.50;29.70;;;;;;5041179;28;20029;-89
2021/05/11 05:57:07;;;;;;;6.38;2.40;;;24.90;29.00;;;;;;5053405;28;20110;-92
2021/05/11 05:59:39;;;;;;;7.85;2.45;;;25.40;28.20;;;;;;5050459;28;20037;-92
2021/05/11 06:02:17;;;;;;;9.07;4.00;;;26.20;27.90;;;;;;5059027;28;20025;-93
2021/05/11 06:04:44;;;;;;;6.30;3.38;;;26.20;27.70;;;;;;5041548;28;20086;-90
2021/05/11 06:07:15;;;;;;;6.88;2.30;;;26.30;27.40;;;;;;5055208;28;20018;-94
2021/05/11 06:09:40;;;;;;;9.10;3.80;;;26.60;27.80;;;;;;5040465;28;20115;-89
2021/05/11 06:12:18;;;;;;;3.50;2.15;;;27.60;26.50;;;;;;5046895;28;20040;-92
2021/05/11 06:17:40;;;;;;;4.07;2.55;;;26.80;26.30;;;;;;5056510;28;20033;-94
2021/05/11 06:20:07;;;;;;;8.85;4.57;;;26.50;26.40;;;;;;5060699;28;20026;-91
2021/05/11 06:22:51;;;;;;;7.82;2.17;;;26.60;26.40;;;;;;5066494;28;20534;-91
2021/05/11 06:25:20;;;;;;;4.85;2.00;;;27.30;26.40;;;;;;5062049;28;20105;-89
2021/05/11 06:27:48;;;;;;;5.88;2.00;;;28.00;25.50;;;;;;5063376;28;20384;-93
2021/05/11 06:30:16;;;;;;;3.97;2.20;;;27.70;25.50;;;;;;5064261;28;20044;-88
2021/05/11 06:32:44;;;;;;;3.95;2.78;;;26.80;25.60;;;;;;5062200;28;20017;-92
2021/05/11 06:35:13;;;;;;;4.35;2.60;;;27.00;26.00;;;;;;5064428;28;20028;-95
2021/05/11 06:37:39;;;;;;;5.68;2.00;;;27.50;25.60;;;;;;5046508;28;20082;-92
2021/05/11 06:40:05;;;;;;;6.35;1.85;;;28.60;25.20;;;;;;5061587;28;20032;-88
2021/05/11 06:42:31;;;;;;;3.80;2.15;;;29.50;24.50;;;;;;5061294;28;20087;-91
2021/05/11 06:55:13;;;;;;;8.68;2.10;;;30.00;24.00;;;;;;5060023;28;20085;-89
2021/05/11 06:57:56;;;;;;;4.88;2.20;;;31.00;23.00;;;;;;5058553;28;20029;-91
2021/05/11 07:01:15;;;;;;;8.80;2.40;;;31.50;22.30;;;;;;5056948;28;20033;-92
2021/05/11 07:07:08;;;;;;;5.03;3.05;;;30.20;22.80;;;;;;4999444;28;20097;-89
2021/05/11 07:15:05;;;;;;;6.88;2.60;;;29.60;23.30;;;;;;5060349;28;20031;-89
2021/05/11 07:17:31;;;;;;;7.93;4.47;;;29.30;23.20;;;;;;5040053;28;20426;-91
2021/05/11 07:19:57;;;;;;;6.32;1.75;;;29.20;23.70;;;;;;5054750;28;20032;-90
2021/05/11 07:22:23;;;;;;;6.25;3.08;;;30.00;23.20;;;;;;5063756;28;20030;-90
2021/05/11 07:24:54;;;;;;;5.95;2.30;;;31.40;22.80;;;;;;5053675;28;20045;-87
2021/05/11 07:30:26;;;;;;;4.00;1.70;;;32.80;22.20;;;;;;5067892;28;20014;-89
2021/05/11 07:32:39;;;;;;;12.27;3.92;;;32.20;22.10;;;;;;5059288;28;20375;-90
2021/05/11 07:35:06;;;;;;;8.95;2.90;;;32.40;22.20;;;;;;5062504;28;20025;-91
2021/05/11 07:37:32;;;;;;;;;;;31.40;22.30;;;;;;5062060;28;20047;-89
2021/05/11 07:39:59;;;;;;;5.25;2.00;;;31.00;23.10;;;;;;5061885;28;19913;-90
2021/05/11 07:42:25;;;;;;;6.22;2.38;;;31.20;22.80;;;;;;5082466;28;20020;-89
2021/05/11 07:44:56;;;;;;;4.73;2.30;;;31.00;22.90;;;;;;5084937;28;20032;-88
2021/05/11 07:47:35;;;;;;;7.00;1.88;;;32.10;22.90;;;;;;5068162;28;20021;-89
2021/05/11 08:14:40;;;;;;;3.33;1.90;;;33.50;21.80;;;;;;5062549;28;20083;-88
2021/05/11 08:17:06;;;;;;;6.55;2.38;;;32.60;21.70;;;;;;5057737;28;20485;-88
2021/05/11 08:30:04;;;;;;;6.38;2.33;;;33.00;21.20;;;;;;5047054;28;20021;-88
2021/05/11 08:32:30;;;;;;;4.68;2.40;;;32.20;21.70;;;;;;5060427;28;20024;-87
2021/05/11 08:34:56;;;;;;;4.20;1.63;;;32.30;21.80;;;;;;5045941;28;20107;-88
2021/05/11 08:37:22;;;;;;;4.83;2.27;;;33.10;21.30;;;;;;5060601;28;20107;-87
2021/05/11 08:39:51;;;;;;;4.27;1.80;;;33.00;21.40;;;;;;5055057;28;20036;-89
2021/05/11 08:42:17;;;;;;;6.22;2.17;;;33.20;21.10;;;;;;5051634;28;20024;-89
2021/05/11 08:44:43;;;;;;;3.63;2.03;;;33.50;21.10;;;;;;5060229;28;20025;-88
2021/05/11 08:47:11;;;;;;;3.90;2.40;;;33.20;21.20;;;;;;5053377;28;20063;-88
2021/05/11 08:49:39;;;;;;;4.22;2.20;;;33.40;21.60;;;;;;5040067;28;20409;-86
2021/05/11 08:52:17;;;;;;;5.45;1.80;;;33.80;21.10;;;;;;5029341;28;20036;-90
2021/05/11 08:54:51;;;;;;;6.93;1.92;;;33.40;21.40;;;;;;5059611;28;20122;-90
2021/05/11 09:08:56;;;;;;;5.80;2.50;;;34.90;21.20;;;;;;5075016;28;20028;-87
2021/05/11 09:23:33;;;;;;;6.68;2.65;;;33.40;21.50;;;;;;5062296;28;20029;-89
2021/05/11 09:25:14;;;;;;;4.35;2.35;;;33.70;20.60;;;;;;5010047;28;20037;-88
2021/05/11 09:28:01;;;;;;;3.67;2.22;;;32.50;21.40;;;;;;5047760;28;20024;-88
2021/05/11 09:31:11;;;;;;;4.45;1.40;;;32.60;21.40;;;;;;5069688;28;20025;-88
2021/05/11 09:33:52;;;;;;;2.38;1.80;;;32.90;21.60;;;;;;5070406;28;20025;-89
2021/05/11 10:48:36;;;;;;;3.97;2.13;;;23.60;27.30;;;;;;5058887;28;20021;-88
2021/05/11 10:51:15;;;;;;;4.95;2.45;;;23.30;27.50;;;;;;5058965;28;20104;-90
2021/05/11 10:53:52;;;;;;;4.25;1.85;;;23.00;28.10;;;;;;5053432;28;20502;-91
2021/05/11 10:56:27;;;;;;;5.93;2.25;;;22.90;28.10;;;;;;5067882;28;20501;-90
2021/05/11 11:01:52;;;;;;;3.85;1.98;;;22.70;28.20;;;;;;5056363;28;20385;-90
2021/05/11 11:04:23;;;;;;;7.15;2.10;;;22.60;28.70;;;;;;5038885;28;20036;-90
2021/05/11 11:07:10;;;;;;;10.60;2.03;;;22.70;28.60;;;;;;5043982;28;20029;-90
2021/05/11 11:09:38;;;;;;;3.72;2.05;;;22.70;28.30;;;;;;5060031;28;20021;-90
2021/05/11 11:12:06;;;;;;;7.43;2.47;;;22.70;28.50;;;;;;5067739;28;20075;-90
2021/05/11 11:14:42;;;;;;;5.03;2.20;;;22.60;28.70;;;;;;5038573;28;20047;-89
2021/05/11 11:17:11;;;;;;;2.95;2.13;;;22.70;28.70;;;;;;5041551;28;20051;-88
2021/05/11 11:19:37;;;;;;;7.20;1.88;;;22.70;28.70;;;;;;5058179;28;20072;-89
2021/05/11 11:25:00;;;;;;;4.70;2.15;;;22.70;28.80;;;;;;5046320;28;20056;-90
2021/05/11 11:27:30;;;;;;;11.13;2.30;;;22.60;29.10;;;;;;5065731;28;20076;-90
2021/05/11 11:30:08;;;;;;;9.18;2.40;;;22.60;29.30;;;;;;5039265;28;20037;-90
2021/05/11 11:32:35;;;;;;;7.53;2.33;;;22.60;29.40;;;;;;5067804;28;20104;-91
2021/05/11 11:35:02;;;;;;;3.03;1.83;;;22.60;29.50;;;;;;5062002;28;20076;-89
2021/05/11 11:37:30;;;;;;;4.53;1.58;;;22.50;29.50;;;;;;5054398;28;20596;-92
2021/05/11 11:40:17;;;;;;;5.43;2.00;;;22.50;29.20;;;;;;5056767;28;20067;-89
2021/05/11 11:42:44;;;;;;;6.38;1.95;;;22.40;29.50;;;;;;5057778;28;20041;-89
2021/05/11 11:45:20;;;;;;;3.95;1.95;;;22.40;29.90;;;;;;5065885;28;20029;-89
2021/05/11 11:47:55;;;;;;;5.97;1.90;;;22.50;30.00;;;;;;5052533;28;20022;-89
2021/05/11 11:50:21;;;;;;;5.63;2.33;;;22.50;30.00;;;;;;5043780;28;20059;-90
2021/05/11 11:58:23;;;;;;;4.57;1.98;;;22.70;30.10;;;;;;5052305;28;20028;-92
2021/05/11 12:00:51;;;;;;;5.68;2.35;;;22.60;30.10;;;;;;5056432;28;20104;-91
2021/05/11 12:03:21;;;;;;;;;;;22.70;30.30;;;;;;5047713;28;20057;-91
2021/05/11 12:05:50;;;;;;;7.43;2.25;;;22.70;30.00;;;;;;5058096;28;19908;-91
2021/05/11 12:08:34;;;;;;;5.75;2.58;;;22.70;30.40;;;;;;5058564;28;20013;-90
2021/05/11 12:11:08;;;;;;;5.20;1.52;;;22.70;30.50;;;;;;5057539;28;20413;-91
2021/05/11 12:13:39;;;;;;;7.50;2.30;;;22.70;30.20;;;;;;5057810;28;20458;-91
2021/05/11 12:16:27;;;;;;;5.68;1.92;;;22.70;30.20;;;;;;5058321;28;20374;-91
2021/05/11 12:21:49;;;;;;;3.33;2.03;;;22.80;30.60;;;;;;5058967;28;20474;-91
2021/05/11 12:24:15;;;;;;;11.40;2.75;;;22.80;30.60;;;;;;5057374;28;20061;-92
2021/05/11 12:26:42;;;;;;;4.97;1.83;;;22.80;30.20;;;;;;5040556;28;20025;-92
2021/05/11 12:29:16;;;;;;;8.13;2.25;;;22.80;30.30;;;;;;5043896;28;20025;-91
2021/05/11 12:31:43;;;;;;;10.20;2.25;;;22.80;30.30;;;;;;5056401;28;20111;-89
2021/05/11 12:34:23;;;;;;;6.93;2.67;;;22.80;30.50;;;;;;5038393;28;20028;-90
2021/05/11 12:36:56;;;;;;;10.02;3.00;;;22.80;30.40;;;;;;5045303;28;20033;-89
2021/05/11 12:39:46;;;;;;;8.10;3.00;;;22.80;30.80;;;;;;5030148;28;20044;-90
2021/05/11 12:42:22;;;;;;;5.95;2.33;;;22.80;30.80;;;;;;5032640;28;20029;-90
2021/05/11 12:45:07;;;;;;;6.93;2.63;;;22.80;30.30;;;;;;5040880;28;20018;-90
2021/05/11 12:47:47;;;;;;;6.97;2.15;;;22.80;30.50;;;;;;5039541;28;20036;-89
2021/05/11 12:50:44;;;;;;;5.30;2.20;;;22.80;30.80;;;;;;5053688;28;20025;-87
2021/05/11 12:53:44;;;;;;;;;;;22.80;30.50;;;;;;5053467;28;20033;-91
2021/05/11 12:56:26;;;;;;;15.82;3.88;;;22.80;30.50;;;;;;5060903;28;19947;-89
2021/05/11 12:59:11;;;;;;;8.95;2.00;;;22.80;31.00;;;;;;5048035;28;20028;-92
2021/05/11 13:02:05;;;;;;;7.30;2.38;;;22.90;30.90;;;;;;5046517;28;20088;-91
2021/05/11 13:04:57;;;;;;;11.98;3.42;;;22.90;30.70;;;;;;5063032;28;20033;-88
2021/05/11 13:15:32;;;;;;;;;;;22.90;31.00;;;;;;5059550;28;20048;-89
2021/05/11 13:26:12;;;;;;;6.68;2.05;;;23.00;31.20;;;;;;5057841;28;20099;-88
2021/05/11 13:28:47;;;;;;;3.88;1.88;;;23.00;31.00;;;;;;5056697;28;20025;-91
2021/05/11 13:36:20;;;;;;;5.40;2.70;;;23.00;31.20;;;;;;5056401;28;20012;-90
2021/05/11 13:38:46;;;;;;;6.47;2.17;;;23.00;31.40;;;;;;5057945;28;20032;-93
2021/05/11 13:41:12;;;;;;;8.55;2.05;;;23.10;31.40;;;;;;5057600;28;20022;-91
2021/05/11 13:43:37;;;;;;;19.60;4.90;;;23.60;31.00;;;;;;5056828;28;20131;-91
2021/05/11 13:46:03;;;;;;;6.80;2.00;;;24.50;30.10;;;;;;5058529;28;20059;-90
2021/05/11 13:48:35;;;;;;;7.53;2.08;;;25.50;29.70;;;;;;5059843;28;20378;-90
2021/05/11 13:51:04;;;;;;;4.47;2.30;;;26.40;29.00;;;;;;5077198;28;20025;-90
2021/05/11 13:53:35;;;;;;;9.88;2.00;;;27.10;28.40;;;;;;5060357;28;20478;-90
2021/05/11 14:03:58;;;;;;;3.67;2.05;;;28.20;27.20;;;;;;5053954;28;20028;-89
2021/05/11 14:06:24;;;;;;;6.57;2.20;;;27.70;27.40;;;;;;5052993;28;20022;-90
2021/05/11 14:08:50;;;;;;;7.70;2.43;;;27.70;27.80;;;;;;5062844;28;20104;-89
2021/05/11 14:11:16;;;;;;;6.00;2.08;;;28.00;27.60;;;;;;5059794;28;20063;-88
2021/05/11 14:13:42;;;;;;;11.00;2.53;;;28.00;27.60;;;;;;5059799;28;20101;-91
2021/05/11 14:16:08;;;;;;;6.83;2.13;;;27.80;27.50;;;;;;5059230;28;20025;-92
2021/05/11 14:18:34;;;;;;;8.48;2.30;;;27.50;27.80;;;;;;5047135;28;20030;-90
2021/05/11 14:21:00;;;;;;;9.02;2.28;;;27.60;27.90;;;;;;5044405;28;20025;-92
2021/05/11 14:23:26;;;;;;;5.30;2.20;;;27.70;27.80;;;;;;5066884;28;20047;-91
2021/05/11 14:25:53;;;;;;;8.40;1.85;;;27.60;27.80;;;;;;5058415;28;20045;-89
2021/05/11 14:28:19;;;;;;;7.47;2.40;;;27.60;27.90;;;;;;5037777;28;20055;-91
2021/05/11 14:30:45;;;;;;;8.27;3.10;;;27.70;27.90;;;;;;5068895;28;20269;-91
2021/05/11 14:33:12;;;;;;;4.03;2.60;;;27.80;28.00;;;;;;5049664;28;20108;-90
2021/05/11 14:35:38;;;;;;;5.60;2.47;;;27.70;27.90;;;;;;5064754;28;20021;-89
2021/05/11 14:38:03;;;;;;;4.18;2.05;;;27.40;28.20;;;;;;5055666;28;20097;-90
2021/05/11 14:40:31;;;;;;;5.85;2.42;;;27.30;28.40;;;;;;5067103;28;20068;-90
2021/05/11 14:42:57;;;;;;;5.20;2.60;;;27.30;28.40;;;;;;5072677;28;20040;-90
2021/05/11 14:45:23;;;;;;;5.28;2.30;;;27.10;28.40;;;;;;5047254;28;20024;-90
2021/05/11 14:47:50;;;;;;;9.10;2.28;;;26.80;28.50;;;;;;5053108;28;20142;-92
2021/05/11 14:50:17;;;;;;;;;;;26.70;28.70;;;;;;5054707;28;20093;-92
2021/05/11 14:52:44;;;;;;;8.25;2.70;;;26.80;28.80;;;;;;5040115;28;19909;-91
2021/05/11 14:55:13;;;;;;;14.63;3.38;;;26.60;28.70;;;;;;5045485;28;20032;-93
2021/05/11 14:57:40;;;;;;;6.10;2.78;;;26.30;28.90;;;;;;5055246;28;20033;-91
2021/05/11 15:00:06;;;;;;;5.35;2.72;;;26.20;29.70;;;;;;5061331;28;20406;-92
2021/05/11 15:02:34;;;;;;;6.25;2.58;;;26.30;29.20;;;;;;5031225;28;20540;-90
2021/05/11 15:05:04;;;;;;;22.08;3.60;;;26.00;29.30;;;;;;5047250;28;20041;-90
2021/05/11 15:07:32;;;;;;;8.18;3.13;;;25.90;29.60;;;;;;5065902;28;20025;-91
2021/05/11 15:10:01;;;;;;;12.38;3.17;;;25.70;29.60;;;;;;5065537;28;20032;-92
2021/05/11 15:12:27;;;;;;;7.97;3.58;;;25.20;29.90;;;;;;5073722;28;20104;-89
2021/05/11 15:14:53;;;;;;;8.27;3.78;;;24.90;30.30;;;;;;5072142;28;20033;-92
2021/05/11 15:19:51;;;;;;;10.85;3.67;;;24.40;31.00;;;;;;5051269;28;20120;-91
2021/05/11 15:22:19;;;;;;;10.05;3.38;;;24.10;31.30;;;;;;5045692;28;20017;-90
2021/05/11 15:24:50;;;;;;;3.67;2.65;;;23.90;31.60;;;;;;5063958;28;20194;-91
2021/05/11 15:27:17;;;;;;;3.90;3.17;;;23.70;31.80;;;;;;5060665;28;20039;-92
2021/05/11 15:29:44;;;;;;;8.05;3.78;;;23.50;32.30;;;;;;5063570;28;20051;-91
2021/05/11 15:32:35;;;;;;;8.65;3.75;;;23.40;32.80;;;;;;5075878;28;20035;-91
2021/05/11 15:35:00;;;;;;;6.50;4.00;;;23.20;32.70;;;;;;5066998;28;20024;-90
2021/05/11 15:37:26;;;;;;;14.88;4.53;;;23.10;33.30;;;;;;5043512;28;20025;-90
2021/05/11 15:39:52;;;;;;;10.45;4.57;;;23.00;33.50;;;;;;5065946;28;20071;-89
2021/05/11 15:42:18;;;;;;;9.80;4.10;;;22.90;33.60;;;;;;5070339;28;20005;-91
2021/05/11 15:44:44;;;;;;;8.40;3.83;;;22.90;33.70;;;;;;5066789;28;20036;-92
2021/05/11 15:47:10;;;;;;;5.47;4.20;;;22.80;33.70;;;;;;5070452;28;20029;-92
2021/05/11 15:49:36;;;;;;;5.40;4.05;;;22.80;33.80;;;;;;5066626;28;20085;-90
2021/05/11 15:52:05;;;;;;;10.52;3.97;;;22.80;33.90;;;;;;5056498;28;20028;-90
2021/05/11 15:54:31;;;;;;;7.22;3.65;;;22.70;34.00;;;;;;5060071;28;20021;-90
2021/05/11 15:56:59;;;;;;;9.32;4.25;;;22.60;33.90;;;;;;5052361;28;20025;-90
2021/05/11 15:59:29;;;;;;;8.00;4.55;;;22.60;34.10;;;;;;5045395;28;20044;-93
2021/05/11 16:01:55;;;;;;;9.50;3.70;;;22.60;34.50;;;;;;5029701;28;20017;-94
2021/05/11 16:04:21;;;;;;;6.95;4.20;;;22.60;34.50;;;;;;5054572;28;20035;-92
2021/05/11 16:06:47;;;;;;;9.93;3.80;;;22.60;34.40;;;;;;5056095;28;20109;-91
2021/05/11 16:09:13;;;;;;;10.57;4.55;;;22.50;34.50;;;;;;5075092;28;20033;-91
2021/05/11 16:11:39;;;;;;;9.05;3.78;;;22.50;34.50;;;;;;5067287;28;20024;-92
2021/05/11 16:14:05;;;;;;;7.88;3.90;;;22.50;34.70;;;;;;5049912;28;20029;-92
2021/05/11 16:16:35;;;;;;;9.93;3.97;;;22.40;34.80;;;;;;5067720;28;20029;-93
2021/05/11 16:19:02;;;;;;;7.05;3.72;;;22.40;35.10;;;;;;5033913;28;20482;-94
2021/05/11 16:21:28;;;;;;;5.05;3.55;;;22.30;35.00;;;;;;5052327;28;20049;-90
2021/05/11 16:23:56;;;;;;;4.10;3.13;;;22.20;35.10;;;;;;5055838;28;20414;-92
2021/05/11 16:26:27;;;;;;;8.32;3.83;;;22.30;35.20;;;;;;5007214;28;20055;-91
2021/05/11 16:28:54;;;;;;;14.00;4.68;;;22.20;35.30;;;;;;5061346;28;20033;-92
2021/05/11 16:31:20;;;;;;;6.72;3.83;;;22.10;35.60;;;;;;5047017;28;20041;-91
2021/05/11 16:33:46;;;;;;;15.90;4.90;;;22.10;35.70;;;;;;5062698;28;20028;-92
2021/05/11 16:36:13;;;;;;;11.88;3.75;;;22.10;36.00;;;;;;5063106;28;20086;-89
2021/05/11 16:38:39;;;;;;;8.03;3.53;;;22.10;35.90;;;;;;5039691;28;20037;-90
2021/05/11 16:41:06;;;;;;;8.20;4.00;;;22.00;36.00;;;;;;5059849;28;20338;-91
2021/05/11 16:43:32;;;;;;;7.33;3.57;;;21.90;36.10;;;;;;5061470;28;20020;-91
2021/05/11 16:46:02;;;;;;;9.60;4.05;;;21.90;36.30;;;;;;5061524;28;20021;-91
2021/05/11 16:48:29;;;;;;;7.95;3.30;;;21.90;36.60;;;;;;5062239;28;20017;-90
2021/05/11 16:50:55;;;;;;;5.13;3.70;;;21.80;36.60;;;;;;5041195;28;20041;-91
2021/05/11 16:53:20;;;;;;;9.77;2.80;;;21.80;36.70;;;;;;5064769;28;20129;-91
2021/05/11 16:55:47;;;;;;;6.95;3.15;;;21.80;36.90;;;;;;5059851;28;20052;-91
2021/05/11 16:58:14;;;;;;;6.65;3.53;;;21.80;37.20;;;;;;5048651;28;20047;-92
2021/05/11 17:00:40;;;;;;;6.63;2.92;;;21.80;37.50;;;;;;5041146;28;20033;-91
2021/05/11 17:03:06;;;;;;;5.55;2.72;;;21.70;37.60;;;;;;5042864;28;20090;-92
2021/05/11 17:05:33;;;;;;;11.27;3.38;;;21.80;37.80;;;;;;5060098;28;20077;-89
2021/05/11 17:08:00;;;;;;;7.75;2.92;;;21.70;38.00;;;;;;5034153;28;20025;-90
2021/05/11 17:10:29;;;;;;;8.25;2.97;;;21.60;38.10;;;;;;5046018;28;20033;-92
2021/05/11 17:13:00;;;;;;;7.10;2.88;;;21.60;38.30;;;;;;5049926;28;20080;-91
2021/05/11 17:15:27;;;;;;;9.52;2.30;;;21.50;38.50;;;;;;5056915;28;20088;-91
2021/05/11 17:17:54;;;;;;;4.32;3.03;;;21.40;38.50;;;;;;5062227;28;20021;-92
2021/05/11 17:20:23;;;;;;;7.95;3.40;;;21.40;38.80;;;;;;5061155;28;20033;-91
2021/05/11 17:22:49;;;;;;;5.15;2.53;;;21.40;38.60;;;;;;5053655;28;20025;-90
2021/05/11 17:25:19;;;;;;;8.10;2.58;;;21.40;38.70;;;;;;5062369;28;20044;-92
2021/05/11 17:27:48;;;;;;;6.20;3.28;;;21.50;38.70;;;;;;5062273;28;20056;-91